sensor_id;sensor_type;location;lat;lon;timestamp;P1;durP1;ratioP1;P2;durP2;ratioP2
61393;SDS011;48555;50.952;-0.120;2023-09-30T00:00:41;5.15;;;1.85;;
61393;SDS011;48555;50.952;-0.120;2023-09-30T00:03:07;4.38;;;1.75;;
61393;SDS011;48555;50.952;-0.120;2023-09-30T00:05:32;7.55;;;1.98;;
61393;SDS011;48555;50.952;-0.120;2023-09-30T00:07:58;7.70;;;2.08;;
61393;SDS011;48555;50.952;-0.120;2023-09-30T00:10:23;7.30;;;2.30;;
61393;SDS011;48555;50.952;-0.120;2023-09-30T00:12:48;6.60;;;2.30;;
61393;SDS011;48555;50.952;-0.120;2023-09-30T00:15:14;7.32;;;2.30;;
61393;SDS011;48555;50.952;-0.120;2023-09-30T00:17:39;6.32;;;1.92;;
61393;SDS011;48555;50.952;-0.120;2023-09-30T00:20:05;7.93;;;2.20;;
61393;SDS011;48555;50.952;-0.120;2023-09-30T00:22:31;7.30;;;2.17;;
61393;SDS011;48555;50.952;-0.120;2023-09-30T00:24:56;9.32;;;2.75;;
61393;SDS011;48555;50.952;-0.120;2023-09-30T00:27:21;8.43;;;2.60;;
61393;SDS011;48555;50.952;-0.120;2023-09-30T00:29:47;8.65;;;2.35;;
61393;SDS011;48555;50.952;-0.120;2023-09-30T00:32:12;4.75;;;1.85;;
61393;SDS011;48555;50.952;-0.120;2023-09-30T00:34:37;7.30;;;2.20;;
61393;SDS011;48555;50.952;-0.120;2023-09-30T00:37:03;5.45;;;1.80;;
61393;SDS011;48555;50.952;-0.120;2023-09-30T00:39:29;5.45;;;1.80;;
61393;SDS011;48555;50.952;-0.120;2023-09-30T00:41:57;4.75;;;1.75;;
61393;SDS011;48555;50.952;-0.120;2023-09-30T00:44:26;6.50;;;2.28;;
61393;SDS011;48555;50.952;-0.120;2023-09-30T00:46:52;6.03;;;1.80;;
61393;SDS011;48555;50.952;-0.120;2023-09-30T00:49:20;6.65;;;2.22;;
61393;SDS011;48555;50.952;-0.120;2023-09-30T00:51:46;9.02;;;2.10;;
61393;SDS011;48555;50.952;-0.120;2023-09-30T00:54:12;6.25;;;1.85;;
61393;SDS011;48555;50.952;-0.120;2023-09-30T00:56:41;4.90;;;1.60;;
61393;SDS011;48555;50.952;-0.120;2023-09-30T00:59:10;7.88;;;1.90;;
61393;SDS011;48555;50.952;-0.120;2023-09-30T01:01:36;5.50;;;1.40;;
61393;SDS011;48555;50.952;-0.120;2023-09-30T01:04:02;6.13;;;1.98;;
61393;SDS011;48555;50.952;-0.120;2023-09-30T01:06:28;6.85;;;2.40;;
61393;SDS011;48555;50.952;-0.120;2023-09-30T01:08:53;5.30;;;1.80;;
61393;SDS011;48555;50.952;-0.120;2023-09-30T01:11:18;6.93;;;1.80;;
61393;SDS011;48555;50.952;-0.120;2023-09-30T01:13:45;9.45;;;2.25;;
61393;SDS011;48555;50.952;-0.120;2023-09-30T01:16:12;8.63;;;2.10;;
61393;SDS011;48555;50.952;-0.120;2023-09-30T01:18:38;7.22;;;1.70;;
61393;SDS011;48555;50.952;-0.120;2023-09-30T01:21:05;8.13;;;1.90;;
61393;SDS011;48555;50.952;-0.120;2023-09-30T01:23:31;8.73;;;1.98;;
61393;SDS011;48555;50.952;-0.120;2023-09-30T01:26:00;8.77;;;2.10;;
61393;SDS011;48555;50.952;-0.120;2023-09-30T01:28:32;6.13;;;1.83;;
61393;SDS011;48555;50.952;-0.120;2023-09-30T01:30:57;6.30;;;1.90;;
61393;SDS011;48555;50.952;-0.120;2023-09-30T01:33:23;5.55;;;1.60;;
61393;SDS011;48555;50.952;-0.120;2023-09-30T01:35:49;8.90;;;1.70;;
61393;SDS011;48555;50.952;-0.120;2023-09-30T01:38:14;7.30;;;1.80;;
61393;SDS011;48555;50.952;-0.120;2023-09-30T01:40:40;7.05;;;2.10;;
61393;SDS011;48555;50.952;-0.120;2023-09-30T01:43:05;6.78;;;1.60;;
61393;SDS011;48555;50.952;-0.120;2023-09-30T01:45:30;6.20;;;1.70;;
61393;SDS011;48555;50.952;-0.120;2023-09-30T01:47:56;6.40;;;1.58;;
61393;SDS011;48555;50.952;-0.120;2023-09-30T01:50:21;6.65;;;1.58;;
61393;SDS011;48555;50.952;-0.120;2023-09-30T01:52:46;7.70;;;1.45;;
61393;SDS011;48555;50.952;-0.120;2023-09-30T01:55:12;10.13;;;2.17;;
61393;SDS011;48555;50.952;-0.120;2023-09-30T01:57:37;5.57;;;2.08;;
61393;SDS011;48555;50.952;-0.120;2023-09-30T02:00:03;7.32;;;1.90;;
61393;SDS011;48555;50.952;-0.120;2023-09-30T02:02:29;9.50;;;2.30;;
61393;SDS011;48555;50.952;-0.120;2023-09-30T02:04:55;8.95;;;1.75;;
61393;SDS011;48555;50.952;-0.120;2023-09-30T02:07:20;6.28;;;1.73;;
61393;SDS011;48555;50.952;-0.120;2023-09-30T02:09:46;5.60;;;1.65;;
61393;SDS011;48555;50.952;-0.120;2023-09-30T02:12:11;9.48;;;2.08;;
61393;SDS011;48555;50.952;-0.120;2023-09-30T02:14:37;6.03;;;2.03;;
61393;SDS011;48555;50.952;-0.120;2023-09-30T02:17:03;7.60;;;1.80;;
61393;SDS011;48555;50.952;-0.120;2023-09-30T02:19:29;9.77;;;2.03;;
61393;SDS011;48555;50.952;-0.120;2023-09-30T02:21:56;5.45;;;1.50;;
61393;SDS011;48555;50.952;-0.120;2023-09-30T02:24:22;7.05;;;1.90;;
61393;SDS011;48555;50.952;-0.120;2023-09-30T02:26:48;7.10;;;1.83;;
61393;SDS011;48555;50.952;-0.120;2023-09-30T02:29:13;3.97;;;1.58;;
61393;SDS011;48555;50.952;-0.120;2023-09-30T02:31:38;7.72;;;1.98;;
61393;SDS011;48555;50.952;-0.120;2023-09-30T02:34:04;5.30;;;1.60;;
61393;SDS011;48555;50.952;-0.120;2023-09-30T02:36:29;3.88;;;1.40;;
61393;SDS011;48555;50.952;-0.120;2023-09-30T02:38:54;4.72;;;1.65;;
61393;SDS011;48555;50.952;-0.120;2023-09-30T02:41:20;6.15;;;2.10;;
61393;SDS011;48555;50.952;-0.120;2023-09-30T02:43:45;4.35;;;1.83;;
61393;SDS011;48555;50.952;-0.120;2023-09-30T02:46:11;4.97;;;1.60;;
61393;SDS011;48555;50.952;-0.120;2023-09-30T02:48:37;7.38;;;1.60;;
61393;SDS011;48555;50.952;-0.120;2023-09-30T02:51:02;5.05;;;1.67;;
61393;SDS011;48555;50.952;-0.120;2023-09-30T02:53:28;5.05;;;1.75;;
61393;SDS011;48555;50.952;-0.120;2023-09-30T02:55:53;5.78;;;1.70;;
61393;SDS011;48555;50.952;-0.120;2023-09-30T02:58:22;8.15;;;2.08;;
61393;SDS011;48555;50.952;-0.120;2023-09-30T03:00:49;4.50;;;1.40;;
61393;SDS011;48555;50.952;-0.120;2023-09-30T03:03:14;9.48;;;1.75;;
61393;SDS011;48555;50.952;-0.120;2023-09-30T03:05:39;3.53;;;1.38;;
61393;SDS011;48555;50.952;-0.120;2023-09-30T03:08:05;5.70;;;1.40;;
61393;SDS011;48555;50.952;-0.120;2023-09-30T03:10:30;4.75;;;1.60;;
61393;SDS011;48555;50.952;-0.120;2023-09-30T03:12:56;6.72;;;1.73;;
61393;SDS011;48555;50.952;-0.120;2023-09-30T03:15:26;5.47;;;1.47;;
61393;SDS011;48555;50.952;-0.120;2023-09-30T03:17:53;5.35;;;1.73;;
61393;SDS011;48555;50.952;-0.120;2023-09-30T03:20:20;6.50;;;1.63;;
61393;SDS011;48555;50.952;-0.120;2023-09-30T03:22:46;4.93;;;1.55;;
61393;SDS011;48555;50.952;-0.120;2023-09-30T03:25:12;5.00;;;1.67;;
61393;SDS011;48555;50.952;-0.120;2023-09-30T03:27:41;4.35;;;1.50;;
61393;SDS011;48555;50.952;-0.120;2023-09-30T03:30:07;8.77;;;1.80;;
61393;SDS011;48555;50.952;-0.120;2023-09-30T03:32:33;4.70;;;1.70;;
61393;SDS011;48555;50.952;-0.120;2023-09-30T03:35:01;5.07;;;1.70;;
61393;SDS011;48555;50.952;-0.120;2023-09-30T03:37:27;4.68;;;1.58;;
61393;SDS011;48555;50.952;-0.120;2023-09-30T03:39:54;7.72;;;1.63;;
61393;SDS011;48555;50.952;-0.120;2023-09-30T03:42:19;6.38;;;1.67;;
61393;SDS011;48555;50.952;-0.120;2023-09-30T03:44:45;3.63;;;1.17;;
61393;SDS011;48555;50.952;-0.120;2023-09-30T03:47:10;6.20;;;1.50;;
61393;SDS011;48555;50.952;-0.120;2023-09-30T03:49:36;4.88;;;1.65;;
61393;SDS011;48555;50.952;-0.120;2023-09-30T03:52:03;4.03;;;1.60;;
61393;SDS011;48555;50.952;-0.120;2023-09-30T03:54:29;4.13;;;1.20;;
61393;SDS011;48555;50.952;-0.120;2023-09-30T03:56:55;6.85;;;1.65;;
61393;SDS011;48555;50.952;-0.120;2023-09-30T03:59:20;4.43;;;1.63;;
61393;SDS011;48555;50.952;-0.120;2023-09-30T04:01:45;5.63;;;2.08;;
61393;SDS011;48555;50.952;-0.120;2023-09-30T04:04:12;4.93;;;1.90;;
61393;SDS011;48555;50.952;-0.120;2023-09-30T04:06:37;6.45;;;1.45;;
61393;SDS011;48555;50.952;-0.120;2023-09-30T04:09:04;4.75;;;1.60;;
61393;SDS011;48555;50.952;-0.120;2023-09-30T04:11:34;5.53;;;1.17;;
61393;SDS011;48555;50.952;-0.120;2023-09-30T04:14:01;4.15;;;1.20;;
61393;SDS011;48555;50.952;-0.120;2023-09-30T04:16:26;3.17;;;1.30;;
61393;SDS011;48555;50.952;-0.120;2023-09-30T04:18:54;6.35;;;1.63;;
61393;SDS011;48555;50.952;-0.120;2023-09-30T04:21:20;4.53;;;1.42;;
61393;SDS011;48555;50.952;-0.120;2023-09-30T04:23:45;4.97;;;1.40;;
61393;SDS011;48555;50.952;-0.120;2023-09-30T04:26:11;6.57;;;1.67;;
61393;SDS011;48555;50.952;-0.120;2023-09-30T04:28:36;4.13;;;1.50;;
61393;SDS011;48555;50.952;-0.120;2023-09-30T04:31:02;4.82;;;1.70;;
61393;SDS011;48555;50.952;-0.120;2023-09-30T04:33:28;6.68;;;1.38;;
61393;SDS011;48555;50.952;-0.120;2023-09-30T04:35:53;5.22;;;1.23;;
61393;SDS011;48555;50.952;-0.120;2023-09-30T04:38:19;3.80;;;1.30;;
61393;SDS011;48555;50.952;-0.120;2023-09-30T04:40:44;5.95;;;1.52;;
61393;SDS011;48555;50.952;-0.120;2023-09-30T04:43:13;4.82;;;1.60;;
61393;SDS011;48555;50.952;-0.120;2023-09-30T04:45:39;3.15;;;1.27;;
61393;SDS011;48555;50.952;-0.120;2023-09-30T04:48:05;3.58;;;1.55;;
61393;SDS011;48555;50.952;-0.120;2023-09-30T04:50:30;5.05;;;1.48;;
61393;SDS011;48555;50.952;-0.120;2023-09-30T04:52:56;4.18;;;1.73;;
61393;SDS011;48555;50.952;-0.120;2023-09-30T04:55:22;6.75;;;1.70;;
61393;SDS011;48555;50.952;-0.120;2023-09-30T04:57:48;5.38;;;1.48;;
61393;SDS011;48555;50.952;-0.120;2023-09-30T05:00:15;4.63;;;1.33;;
61393;SDS011;48555;50.952;-0.120;2023-09-30T05:02:49;3.63;;;1.42;;
61393;SDS011;48555;50.952;-0.120;2023-09-30T05:05:15;7.57;;;1.88;;
61393;SDS011;48555;50.952;-0.120;2023-09-30T05:07:41;3.40;;;1.30;;
61393;SDS011;48555;50.952;-0.120;2023-09-30T05:10:06;6.80;;;1.77;;
61393;SDS011;48555;50.952;-0.120;2023-09-30T05:12:36;6.18;;;1.60;;
61393;SDS011;48555;50.952;-0.120;2023-09-30T05:15:02;4.00;;;1.33;;
61393;SDS011;48555;50.952;-0.120;2023-09-30T05:17:28;6.82;;;1.70;;
61393;SDS011;48555;50.952;-0.120;2023-09-30T05:19:55;6.75;;;1.55;;
61393;SDS011;48555;50.952;-0.120;2023-09-30T05:22:22;6.80;;;1.30;;
61393;SDS011;48555;50.952;-0.120;2023-09-30T05:24:49;6.53;;;1.83;;
61393;SDS011;48555;50.952;-0.120;2023-09-30T05:27:17;3.20;;;1.15;;
61393;SDS011;48555;50.952;-0.120;2023-09-30T05:29:43;6.10;;;1.33;;
61393;SDS011;48555;50.952;-0.120;2023-09-30T05:32:09;5.55;;;1.55;;
61393;SDS011;48555;50.952;-0.120;2023-09-30T05:34:34;5.50;;;1.90;;
61393;SDS011;48555;50.952;-0.120;2023-09-30T05:36:59;5.28;;;1.80;;
61393;SDS011;48555;50.952;-0.120;2023-09-30T05:39:24;4.20;;;1.73;;
61393;SDS011;48555;50.952;-0.120;2023-09-30T05:41:50;4.05;;;1.50;;
61393;SDS011;48555;50.952;-0.120;2023-09-30T05:44:16;3.63;;;1.42;;
61393;SDS011;48555;50.952;-0.120;2023-09-30T05:46:41;4.47;;;1.67;;
61393;SDS011;48555;50.952;-0.120;2023-09-30T05:49:10;4.88;;;1.65;;
61393;SDS011;48555;50.952;-0.120;2023-09-30T05:51:39;4.35;;;1.75;;
61393;SDS011;48555;50.952;-0.120;2023-09-30T05:54:07;6.40;;;1.85;;
61393;SDS011;48555;50.952;-0.120;2023-09-30T05:56:35;5.13;;;1.67;;
61393;SDS011;48555;50.952;-0.120;2023-09-30T05:59:02;5.43;;;1.58;;
61393;SDS011;48555;50.952;-0.120;2023-09-30T06:01:28;4.93;;;1.70;;
61393;SDS011;48555;50.952;-0.120;2023-09-30T06:03:53;4.53;;;1.38;;
61393;SDS011;48555;50.952;-0.120;2023-09-30T06:06:19;7.68;;;2.17;;
61393;SDS011;48555;50.952;-0.120;2023-09-30T06:08:45;8.55;;;1.70;;
61393;SDS011;48555;50.952;-0.120;2023-09-30T06:11:19;4.82;;;1.42;;
61393;SDS011;48555;50.952;-0.120;2023-09-30T06:13:49;3.03;;;1.52;;
61393;SDS011;48555;50.952;-0.120;2023-09-30T06:16:15;5.75;;;1.23;;
61393;SDS011;48555;50.952;-0.120;2023-09-30T06:18:41;4.78;;;1.48;;
61393;SDS011;48555;50.952;-0.120;2023-09-30T06:21:06;6.47;;;1.75;;
61393;SDS011;48555;50.952;-0.120;2023-09-30T06:23:32;6.47;;;1.67;;
61393;SDS011;48555;50.952;-0.120;2023-09-30T06:25:57;5.75;;;1.55;;
61393;SDS011;48555;50.952;-0.120;2023-09-30T06:28:26;5.25;;;1.58;;
61393;SDS011;48555;50.952;-0.120;2023-09-30T06:30:53;5.05;;;1.63;;
61393;SDS011;48555;50.952;-0.120;2023-09-30T06:33:18;3.92;;;1.50;;
61393;SDS011;48555;50.952;-0.120;2023-09-30T06:35:43;4.50;;;2.03;;
61393;SDS011;48555;50.952;-0.120;2023-09-30T06:38:16;6.75;;;1.70;;
61393;SDS011;48555;50.952;-0.120;2023-09-30T06:40:45;4.45;;;1.48;;
61393;SDS011;48555;50.952;-0.120;2023-09-30T06:43:12;6.28;;;2.13;;
61393;SDS011;48555;50.952;-0.120;2023-09-30T06:45:43;7.97;;;2.30;;
61393;SDS011;48555;50.952;-0.120;2023-09-30T06:48:10;8.15;;;2.15;;
61393;SDS011;48555;50.952;-0.120;2023-09-30T06:50:39;5.97;;;2.08;;
61393;SDS011;48555;50.952;-0.120;2023-09-30T06:53:08;8.40;;;2.00;;
61393;SDS011;48555;50.952;-0.120;2023-09-30T06:55:34;6.85;;;1.98;;
61393;SDS011;48555;50.952;-0.120;2023-09-30T06:58:02;4.55;;;1.90;;
61393;SDS011;48555;50.952;-0.120;2023-09-30T07:00:27;6.30;;;1.80;;
61393;SDS011;48555;50.952;-0.120;2023-09-30T07:02:52;6.00;;;2.03;;
61393;SDS011;48555;50.952;-0.120;2023-09-30T07:05:18;4.53;;;1.90;;
61393;SDS011;48555;50.952;-0.120;2023-09-30T07:07:44;5.68;;;2.05;;
61393;SDS011;48555;50.952;-0.120;2023-09-30T07:10:10;4.47;;;1.90;;
61393;SDS011;48555;50.952;-0.120;2023-09-30T07:12:36;5.90;;;1.80;;
61393;SDS011;48555;50.952;-0.120;2023-09-30T07:15:02;6.25;;;2.08;;
61393;SDS011;48555;50.952;-0.120;2023-09-30T07:17:29;8.25;;;2.22;;
61393;SDS011;48555;50.952;-0.120;2023-09-30T07:19:55;6.07;;;2.08;;
61393;SDS011;48555;50.952;-0.120;2023-09-30T07:22:20;7.00;;;2.08;;
61393;SDS011;48555;50.952;-0.120;2023-09-30T07:24:45;6.40;;;2.20;;
61393;SDS011;48555;50.952;-0.120;2023-09-30T07:27:11;6.82;;;2.50;;
61393;SDS011;48555;50.952;-0.120;2023-09-30T07:29:36;8.32;;;2.63;;
61393;SDS011;48555;50.952;-0.120;2023-09-30T07:32:02;7.25;;;2.78;;
61393;SDS011;48555;50.952;-0.120;2023-09-30T07:34:27;9.55;;;2.72;;
61393;SDS011;48555;50.952;-0.120;2023-09-30T07:36:53;5.15;;;2.42;;
61393;SDS011;48555;50.952;-0.120;2023-09-30T07:39:18;6.93;;;2.50;;
61393;SDS011;48555;50.952;-0.120;2023-09-30T07:41:43;8.93;;;2.92;;
61393;SDS011;48555;50.952;-0.120;2023-09-30T07:44:08;6.00;;;2.42;;
61393;SDS011;48555;50.952;-0.120;2023-09-30T07:46:34;6.30;;;3.00;;
61393;SDS011;48555;50.952;-0.120;2023-09-30T07:49:00;8.77;;;3.13;;
61393;SDS011;48555;50.952;-0.120;2023-09-30T07:51:25;9.75;;;3.40;;
61393;SDS011;48555;50.952;-0.120;2023-09-30T07:53:51;11.75;;;3.00;;
61393;SDS011;48555;50.952;-0.120;2023-09-30T07:56:17;6.65;;;2.38;;
61393;SDS011;48555;50.952;-0.120;2023-09-30T07:58:42;9.70;;;3.00;;
61393;SDS011;48555;50.952;-0.120;2023-09-30T08:01:08;7.90;;;2.65;;
61393;SDS011;48555;50.952;-0.120;2023-09-30T08:03:33;7.45;;;2.55;;
61393;SDS011;48555;50.952;-0.120;2023-09-30T08:05:59;6.63;;;2.60;;
61393;SDS011;48555;50.952;-0.120;2023-09-30T08:08:25;7.07;;;2.60;;
61393;SDS011;48555;50.952;-0.120;2023-09-30T08:10:50;11.25;;;2.75;;
61393;SDS011;48555;50.952;-0.120;2023-09-30T08:13:20;8.02;;;2.50;;
61393;SDS011;48555;50.952;-0.120;2023-09-30T08:15:45;7.82;;;2.55;;
61393;SDS011;48555;50.952;-0.120;2023-09-30T08:18:11;6.53;;;2.60;;
61393;SDS011;48555;50.952;-0.120;2023-09-30T08:20:36;11.57;;;3.25;;
61393;SDS011;48555;50.952;-0.120;2023-09-30T08:23:01;8.48;;;2.40;;
61393;SDS011;48555;50.952;-0.120;2023-09-30T08:25:28;8.85;;;2.58;;
61393;SDS011;48555;50.952;-0.120;2023-09-30T08:27:53;7.55;;;2.30;;
61393;SDS011;48555;50.952;-0.120;2023-09-30T08:30:19;10.27;;;2.47;;
61393;SDS011;48555;50.952;-0.120;2023-09-30T08:32:45;7.88;;;2.40;;
61393;SDS011;48555;50.952;-0.120;2023-09-30T08:35:11;7.40;;;2.58;;
61393;SDS011;48555;50.952;-0.120;2023-09-30T08:37:39;8.00;;;2.50;;
61393;SDS011;48555;50.952;-0.120;2023-09-30T08:40:05;8.80;;;2.55;;
61393;SDS011;48555;50.952;-0.120;2023-09-30T08:42:31;7.18;;;2.40;;
61393;SDS011;48555;50.952;-0.120;2023-09-30T08:44:58;7.78;;;2.80;;
61393;SDS011;48555;50.952;-0.120;2023-09-30T08:47:27;9.77;;;2.90;;
61393;SDS011;48555;50.952;-0.120;2023-09-30T08:49:59;9.65;;;2.60;;
61393;SDS011;48555;50.952;-0.120;2023-09-30T08:52:30;8.38;;;2.58;;
61393;SDS011;48555;50.952;-0.120;2023-09-30T08:54:57;9.00;;;2.70;;
61393;SDS011;48555;50.952;-0.120;2023-09-30T08:57:22;10.27;;;2.88;;
61393;SDS011;48555;50.952;-0.120;2023-09-30T08:59:50;7.50;;;2.55;;
61393;SDS011;48555;50.952;-0.120;2023-09-30T09:02:17;7.35;;;2.38;;
61393;SDS011;48555;50.952;-0.120;2023-09-30T09:04:43;8.40;;;2.40;;
61393;SDS011;48555;50.952;-0.120;2023-09-30T09:07:11;11.27;;;2.53;;
61393;SDS011;48555;50.952;-0.120;2023-09-30T09:09:36;7.50;;;2.60;;
61393;SDS011;48555;50.952;-0.120;2023-09-30T09:12:02;7.25;;;2.20;;
61393;SDS011;48555;50.952;-0.120;2023-09-30T09:14:40;8.50;;;2.38;;
61393;SDS011;48555;50.952;-0.120;2023-09-30T09:17:08;10.27;;;2.83;;
61393;SDS011;48555;50.952;-0.120;2023-09-30T09:19:35;8.90;;;2.30;;
61393;SDS011;48555;50.952;-0.120;2023-09-30T09:22:01;7.57;;;2.10;;
61393;SDS011;48555;50.952;-0.120;2023-09-30T09:24:33;7.65;;;2.08;;
61393;SDS011;48555;50.952;-0.120;2023-09-30T09:27:12;8.77;;;2.03;;
61393;SDS011;48555;50.952;-0.120;2023-09-30T09:29:41;7.63;;;2.13;;
61393;SDS011;48555;50.952;-0.120;2023-09-30T09:34:41;7.70;;;2.30;;
61393;SDS011;48555;50.952;-0.120;2023-09-30T09:37:14;6.75;;;1.83;;
61393;SDS011;48555;50.952;-0.120;2023-09-30T09:40:02;7.30;;;2.10;;
61393;SDS011;48555;50.952;-0.120;2023-09-30T09:42:29;8.50;;;2.10;;
61393;SDS011;48555;50.952;-0.120;2023-09-30T09:44:57;7.00;;;2.17;;
61393;SDS011;48555;50.952;-0.120;2023-09-30T09:47:25;8.18;;;1.75;;
61393;SDS011;48555;50.952;-0.120;2023-09-30T09:49:50;8.38;;;2.10;;
61393;SDS011;48555;50.952;-0.120;2023-09-30T09:52:18;9.00;;;2.38;;
61393;SDS011;48555;50.952;-0.120;2023-09-30T09:54:44;7.93;;;2.03;;
61393;SDS011;48555;50.952;-0.120;2023-09-30T09:57:11;8.35;;;1.95;;
61393;SDS011;48555;50.952;-0.120;2023-09-30T09:59:37;6.30;;;2.00;;
61393;SDS011;48555;50.952;-0.120;2023-09-30T10:02:07;8.23;;;2.15;;
61393;SDS011;48555;50.952;-0.120;2023-09-30T10:04:37;8.43;;;2.22;;
61393;SDS011;48555;50.952;-0.120;2023-09-30T10:07:03;9.20;;;2.08;;
61393;SDS011;48555;50.952;-0.120;2023-09-30T10:09:30;10.60;;;2.00;;
61393;SDS011;48555;50.952;-0.120;2023-09-30T10:12:00;6.63;;;1.83;;
61393;SDS011;48555;50.952;-0.120;2023-09-30T10:14:32;8.57;;;2.30;;
61393;SDS011;48555;50.952;-0.120;2023-09-30T10:16:59;8.25;;;2.20;;
61393;SDS011;48555;50.952;-0.120;2023-09-30T10:19:24;9.65;;;2.22;;
61393;SDS011;48555;50.952;-0.120;2023-09-30T10:24:54;9.35;;;2.10;;
61393;SDS011;48555;50.952;-0.120;2023-09-30T10:35:22;7.28;;;1.80;;
61393;SDS011;48555;50.952;-0.120;2023-09-30T10:40:51;5.45;;;1.40;;
61393;SDS011;48555;50.952;-0.120;2023-09-30T10:43:29;8.10;;;1.83;;
61393;SDS011;48555;50.952;-0.120;2023-09-30T10:45:58;7.82;;;1.83;;
61393;SDS011;48555;50.952;-0.120;2023-09-30T10:51:16;8.20;;;1.60;;
61393;SDS011;48555;50.952;-0.120;2023-09-30T10:53:49;5.60;;;1.40;;
61393;SDS011;48555;50.952;-0.120;2023-09-30T10:56:16;6.55;;;1.45;;
61393;SDS011;48555;50.952;-0.120;2023-09-30T11:01:10;7.45;;;1.90;;
61393;SDS011;48555;50.952;-0.120;2023-09-30T11:03:37;6.32;;;1.58;;
61393;SDS011;48555;50.952;-0.120;2023-09-30T11:06:02;7.20;;;1.70;;
61393;SDS011;48555;50.952;-0.120;2023-09-30T11:08:29;8.43;;;1.70;;
61393;SDS011;48555;50.952;-0.120;2023-09-30T11:10:55;6.82;;;1.70;;
61393;SDS011;48555;50.952;-0.120;2023-09-30T11:13:21;7.38;;;1.58;;
61393;SDS011;48555;50.952;-0.120;2023-09-30T11:15:47;7.28;;;1.88;;
61393;SDS011;48555;50.952;-0.120;2023-09-30T11:18:24;5.47;;;1.30;;
61393;SDS011;48555;50.952;-0.120;2023-09-30T11:20:50;10.95;;;2.03;;
61393;SDS011;48555;50.952;-0.120;2023-09-30T11:23:29;7.80;;;1.92;;
61393;SDS011;48555;50.952;-0.120;2023-09-30T11:25:55;7.70;;;1.83;;
61393;SDS011;48555;50.952;-0.120;2023-09-30T11:28:21;8.00;;;1.92;;
61393;SDS011;48555;50.952;-0.120;2023-09-30T11:30:56;7.43;;;1.92;;
61393;SDS011;48555;50.952;-0.120;2023-09-30T11:33:23;8.82;;;2.00;;
61393;SDS011;48555;50.952;-0.120;2023-09-30T11:36:02;6.82;;;1.70;;
61393;SDS011;48555;50.952;-0.120;2023-09-30T11:38:30;8.73;;;2.00;;
61393;SDS011;48555;50.952;-0.120;2023-09-30T11:41:06;9.35;;;2.08;;
61393;SDS011;48555;50.952;-0.120;2023-09-30T11:43:32;8.00;;;1.52;;
61393;SDS011;48555;50.952;-0.120;2023-09-30T11:46:08;6.88;;;1.90;;
61393;SDS011;48555;50.952;-0.120;2023-09-30T11:48:36;11.02;;;1.90;;
61393;SDS011;48555;50.952;-0.120;2023-09-30T11:51:02;7.38;;;1.85;;
61393;SDS011;48555;50.952;-0.120;2023-09-30T11:53:32;6.20;;;1.95;;
61393;SDS011;48555;50.952;-0.120;2023-09-30T11:56:00;8.18;;;1.98;;
61393;SDS011;48555;50.952;-0.120;2023-09-30T11:58:28;10.30;;;2.13;;
61393;SDS011;48555;50.952;-0.120;2023-09-30T12:00:54;7.57;;;2.15;;
61393;SDS011;48555;50.952;-0.120;2023-09-30T12:03:22;8.35;;;2.00;;
61393;SDS011;48555;50.952;-0.120;2023-09-30T12:05:48;10.23;;;2.03;;
61393;SDS011;48555;50.952;-0.120;2023-09-30T12:08:14;7.82;;;1.85;;
61393;SDS011;48555;50.952;-0.120;2023-09-30T12:10:39;7.53;;;1.98;;
61393;SDS011;48555;50.952;-0.120;2023-09-30T12:13:05;5.40;;;1.67;;
61393;SDS011;48555;50.952;-0.120;2023-09-30T12:15:30;8.75;;;2.00;;
61393;SDS011;48555;50.952;-0.120;2023-09-30T12:17:56;7.82;;;2.03;;
61393;SDS011;48555;50.952;-0.120;2023-09-30T12:20:21;8.52;;;1.80;;
61393;SDS011;48555;50.952;-0.120;2023-09-30T12:22:47;5.45;;;1.75;;
61393;SDS011;48555;50.952;-0.120;2023-09-30T12:25:13;8.02;;;2.03;;
61393;SDS011;48555;50.952;-0.120;2023-09-30T12:27:39;7.43;;;2.00;;
61393;SDS011;48555;50.952;-0.120;2023-09-30T12:30:04;9.65;;;1.80;;
61393;SDS011;48555;50.952;-0.120;2023-09-30T12:32:31;8.82;;;1.90;;
61393;SDS011;48555;50.952;-0.120;2023-09-30T12:34:57;11.50;;;2.20;;
61393;SDS011;48555;50.952;-0.120;2023-09-30T12:37:22;6.35;;;1.70;;
61393;SDS011;48555;50.952;-0.120;2023-09-30T12:39:47;8.30;;;1.98;;
61393;SDS011;48555;50.952;-0.120;2023-09-30T12:42:12;7.85;;;2.03;;
61393;SDS011;48555;50.952;-0.120;2023-09-30T12:44:39;10.80;;;2.17;;
61393;SDS011;48555;50.952;-0.120;2023-09-30T12:47:05;7.22;;;1.95;;
61393;SDS011;48555;50.952;-0.120;2023-09-30T12:49:30;9.70;;;2.03;;
61393;SDS011;48555;50.952;-0.120;2023-09-30T12:51:56;9.88;;;2.20;;
61393;SDS011;48555;50.952;-0.120;2023-09-30T12:54:23;8.80;;;2.15;;
61393;SDS011;48555;50.952;-0.120;2023-09-30T12:56:49;8.98;;;2.13;;
61393;SDS011;48555;50.952;-0.120;2023-09-30T12:59:15;9.68;;;1.90;;
61393;SDS011;48555;50.952;-0.120;2023-09-30T13:01:42;10.82;;;2.20;;
61393;SDS011;48555;50.952;-0.120;2023-09-30T13:04:09;8.00;;;2.30;;
61393;SDS011;48555;50.952;-0.120;2023-09-30T13:06:34;8.57;;;1.88;;
61393;SDS011;48555;50.952;-0.120;2023-09-30T13:09:00;8.55;;;1.77;;
61393;SDS011;48555;50.952;-0.120;2023-09-30T13:11:28;8.52;;;2.10;;
61393;SDS011;48555;50.952;-0.120;2023-09-30T13:13:54;10.25;;;2.20;;
61393;SDS011;48555;50.952;-0.120;2023-09-30T13:16:19;10.98;;;2.22;;
61393;SDS011;48555;50.952;-0.120;2023-09-30T13:18:45;10.15;;;2.10;;
61393;SDS011;48555;50.952;-0.120;2023-09-30T13:21:10;7.45;;;1.85;;
61393;SDS011;48555;50.952;-0.120;2023-09-30T13:23:37;7.40;;;1.80;;
61393;SDS011;48555;50.952;-0.120;2023-09-30T13:26:03;9.10;;;1.98;;
61393;SDS011;48555;50.952;-0.120;2023-09-30T13:28:28;5.05;;;1.55;;
61393;SDS011;48555;50.952;-0.120;2023-09-30T13:30:54;9.45;;;2.20;;
61393;SDS011;48555;50.952;-0.120;2023-09-30T13:33:19;5.60;;;1.65;;
61393;SDS011;48555;50.952;-0.120;2023-09-30T13:35:46;6.30;;;1.70;;
61393;SDS011;48555;50.952;-0.120;2023-09-30T13:38:11;7.45;;;1.98;;
61393;SDS011;48555;50.952;-0.120;2023-09-30T13:40:36;11.10;;;2.05;;
61393;SDS011;48555;50.952;-0.120;2023-09-30T13:43:03;8.00;;;1.95;;
61393;SDS011;48555;50.952;-0.120;2023-09-30T13:45:29;8.02;;;1.83;;
61393;SDS011;48555;50.952;-0.120;2023-09-30T13:47:55;5.90;;;1.90;;
61393;SDS011;48555;50.952;-0.120;2023-09-30T13:50:20;9.00;;;2.30;;
61393;SDS011;48555;50.952;-0.120;2023-09-30T13:52:46;5.95;;;1.80;;
61393;SDS011;48555;50.952;-0.120;2023-09-30T13:55:11;8.20;;;1.95;;
61393;SDS011;48555;50.952;-0.120;2023-09-30T13:57:43;8.02;;;1.88;;
61393;SDS011;48555;50.952;-0.120;2023-09-30T14:00:10;7.82;;;1.90;;
61393;SDS011;48555;50.952;-0.120;2023-09-30T14:02:35;7.78;;;1.85;;
61393;SDS011;48555;50.952;-0.120;2023-09-30T14:05:01;7.85;;;2.30;;
61393;SDS011;48555;50.952;-0.120;2023-09-30T14:07:26;8.63;;;2.20;;
61393;SDS011;48555;50.952;-0.120;2023-09-30T14:09:53;10.55;;;2.67;;
61393;SDS011;48555;50.952;-0.120;2023-09-30T14:12:18;10.05;;;2.20;;
61393;SDS011;48555;50.952;-0.120;2023-09-30T14:14:44;11.18;;;2.55;;
61393;SDS011;48555;50.952;-0.120;2023-09-30T14:17:09;6.60;;;1.98;;
61393;SDS011;48555;50.952;-0.120;2023-09-30T14:19:39;7.43;;;2.40;;
61393;SDS011;48555;50.952;-0.120;2023-09-30T14:22:05;8.35;;;2.30;;
61393;SDS011;48555;50.952;-0.120;2023-09-30T14:24:31;12.25;;;2.33;;
61393;SDS011;48555;50.952;-0.120;2023-09-30T14:26:58;8.35;;;2.20;;
61393;SDS011;48555;50.952;-0.120;2023-09-30T14:29:23;8.60;;;1.88;;
61393;SDS011;48555;50.952;-0.120;2023-09-30T14:31:49;7.68;;;2.25;;
61393;SDS011;48555;50.952;-0.120;2023-09-30T14:34:15;8.23;;;2.00;;
61393;SDS011;48555;50.952;-0.120;2023-09-30T14:36:40;7.78;;;2.00;;
61393;SDS011;48555;50.952;-0.120;2023-09-30T14:39:06;8.07;;;2.20;;
61393;SDS011;48555;50.952;-0.120;2023-09-30T14:41:31;9.02;;;2.22;;
61393;SDS011;48555;50.952;-0.120;2023-09-30T14:43:57;8.10;;;2.20;;
61393;SDS011;48555;50.952;-0.120;2023-09-30T14:46:23;9.35;;;2.67;;
61393;SDS011;48555;50.952;-0.120;2023-09-30T14:48:48;8.98;;;2.08;;
61393;SDS011;48555;50.952;-0.120;2023-09-30T14:51:15;8.43;;;2.05;;